Station: Scottsdale

  Atmospheric Gas Attenuation - ITU Rec 676-11   --------------- db/100km ---------------
Date Time Temp RH % AH g/m3 Dew Point Wind Direction Speed kph Gust kph Barometer mB Rainfall Since 9am 24GHz 47GHz 76GHz 122GHz 134GHz 241GHz
23 08:50 12 92 9.81 10.7 22 28 1018.8 8.8 22.3 28.7 46.1 121.1 118.0 406.7
23 08:40 11.9 91 9.64 10.5 24 32 1018.7 8.6 21.9 28.4 45.4 119.3 115.7 398.8
23 08:30 11.8 92 9.68 10.5 26 43 1018.6 8.6 22.0 28.5 45.6 119.9 116.4 401.3
23 08:20 11.8 93 9.79 10.7 20 28 1018.7 8.6 22.2 28.7 46.1 121.2 118.0 406.8
23 08:10 11.7 93 9.73 10.6 24 28 1018.7 8.6 22.1 28.7 45.9 120.6 117.3 404.3
23 08:00 11.7 93 9.73 10.6 24 35 1018.6 8.6 22.1 28.6 45.9 120.6 117.3 404.3
23 07:50 11.6 94 9.77 10.7 26 35 1018.7 8.6 22.2 28.8 46.1 121.3 118.0 406.8
23 07:40 11.6 94 9.77 10.7 22 30 1018.7 8.6 22.2 28.8 46.1 121.3 118.0 406.8
23 07:30 11.5 94 9.71 10.6 22 28 1018.6 8.6 22.1 28.7 45.9 120.7 117.3 404.3
23 07:20 11.6 95 9.88 10.8 20 28 1018.6 8.6 22.4 28.9 46.6 122.5 119.6 412.3
23 07:10 11.6 95 9.88 10.8 33 39 1018.5 8.6 22.4 28.9 46.6 122.5 119.6 412.2
23 07:00 11.6 94 9.77 10.7 20 37 1018.4 8.6 22.2 28.7 46.1 121.2 118.0 406.7
23 06:50 11.7 92 9.62 10.4 20 28 1018.4 8.4 21.9 28.4 45.4 119.3 115.7 398.8
23 06:40 11.6 91 9.46 10.2 17 26 1018.4 8.4 21.5 28.2 44.8 117.7 113.6 391.4
23 06:30 11.7 89 9.31 9.9 26 35 1018.3 8.4 21.2 27.9 44.1 115.8 111.3 383.5
23 06:20 11.7 87 9.1 9.6 24 32 1018.3 8.4 20.8 27.6 43.2 113.4 108.4 373.2
23 06:10 11.7 89 9.31 9.9 28 37 1018.1 8.4 21.2 27.9 44.1 115.8 111.3 383.4
23 06:00 11.7 90 9.41 10.1 22 33 1018.1 8.4 21.4 28.1 44.5 116.9 112.7 388.3
23 05:50 11.7 91 9.52 10.3 24 37 1017.9 8.4 21.7 28.3 45.0 118.1 114.3 393.7
23 05:40 11.8 92 9.68 10.5 24 30 1017.8 8.4 22.0 28.5 45.6 119.8 116.4 401.0
23 05:30 11.9 92 9.74 10.6 24 32 1017.7 8.4 22.1 28.6 45.8 120.3 117.1 403.4
23 05:20 12 93 9.91 10.9 28 46 1017.4 8.4 22.5 28.8 46.4 122.1 119.3 411.2
23 05:10 11.9 94 9.96 11 19 24 1017.5 8.4 22.6 28.9 46.7 122.9 120.2 414.3
23 05:00 11.9 94 9.96 11 24 48 1017.4 8.4 22.6 28.9 46.7 122.8 120.2 414.3
23 04:50 11.9 94 9.96 11 28 32 1017.4 8.4 22.6 28.9 46.7 122.8 120.2 414.3
23 04:40 12 95 10.13 11.2 22 26 1017.3 8.4 23.0 29.2 47.4 124.6 122.4 422.2
23 04:30 12 94 10.02 11.1 32 46 1017.2 8.4 22.7 29.0 46.9 123.4 120.8 416.7
23 04:20 11.9 95 10.06 11.1 26 39 1017.1 8.4 22.8 29.1 47.1 124.0 121.6 419.2
23 04:10 11.9 96 10.17 11.3 24 33 1017.1 8.4 23.1 29.3 47.6 125.3 123.1 424.7
23 04:00 11.9 96 10.17 11.3 20 35 1017 8.2 23.1 29.3 47.6 125.2 123.1 424.7
23 03:50 12 95 10.13 11.2 22 28 1017.1 8.2 23.0 29.2 47.4 124.6 122.4 422.1
23 03:40 12 95 10.13 11.2 22 32 1017.2 8.2 23.0 29.2 47.4 124.6 122.4 422.2
23 03:30 12 95 10.13 11.2 22 35 1017.2 8.2 23.0 29.2 47.4 124.6 122.4 422.2
23 03:20 12 95 10.13 11.2 17 20 1017.4 8.2 23.0 29.2 47.4 124.7 122.4 422.2
23 03:10 12 95 10.13 11.2 28 41 1017.3 8.2 23.0 29.2 47.4 124.6 122.4 422.2
23 03:00 11.9 95 10.06 11.1 13 20 1017.4 8.2 22.8 29.1 47.2 124.0 121.6 419.3
23 02:50 11.9 95 10.06 11.1 26 33 1017.4 8 22.8 29.1 47.2 124.0 121.6 419.3
23 02:40 11.9 96 10.17 11.3 24 37 1017.5 8 23.1 29.3 47.6 125.3 123.2 424.8
23 02:30 11.8 96 10.11 11.2 15 19 1017.5 8 22.9 29.2 47.4 124.8 122.5 422.4
23 02:20 11.8 96 10.11 11.2 19 26 1017.6 7.8 22.9 29.2 47.4 124.8 122.5 422.4
23 02:10 11.9 95 10.06 11.1 22 30 1017.6 7.8 22.8 29.1 47.2 124.0 121.6 419.3
23 02:00 11.8 96 10.11 11.2 20 28 1017.6 7.6 22.9 29.2 47.4 124.8 122.5 422.4
23 01:50 11.8 96 10.11 11.2 19 24 1017.6 7.6 22.9 29.2 47.4 124.8 122.5 422.4
23 01:40 11.8 95 10 11 15 24 1017.5 7.6 22.7 29.0 47.0 123.5 120.9 416.8
23 01:30 11.8 96 10.11 11.2 19 24 1017.5 7.6 22.9 29.2 47.4 124.8 122.5 422.4
23 01:20 11.7 95 9.94 10.9 17 22 1017.5 7.6 22.6 29.0 46.8 122.9 120.2 414.4
23 01:10 11.8 96 10.11 11.2 19 20 1017.6 7.6 22.9 29.2 47.4 124.8 122.5 422.4
23 01:00 11.8 97 10.21 11.3 24 37 1017.4 7.6 23.1 29.4 47.9 125.9 123.9 427.4
23 00:50 11.9 98 10.38 11.6 22 32 1017.4 7.4 23.5 29.7 48.6 127.8 126.2 435.4
23 00:40 11.9 98 10.38 11.6 24 33 1017.5 7 23.5 29.7 48.6 127.8 126.2 435.4
23 00:30 11.8 97 10.21 11.3 17 26 1017.4 6.8 23.1 29.4 47.9 125.9 123.9 427.4
23 00:20 11.8 97 10.21 11.3 17 26 1017.6 6.2 23.1 29.4 47.9 125.9 123.9 427.4
23 00:10 11.9 97 10.27 11.4 20 28 1017.7 6.2 23.3 29.5 48.1 126.5 124.6 429.9
23 00:00 11.8 98 10.32 11.5 20 32 1017.6 6.2 23.4 29.6 48.4 127.2 125.5 433.0
22 23:50 11.9 98 10.38 11.6 20 24 1017.7 5.8 23.5 29.7 48.6 127.8 126.2 435.5
22 23:40 11.9 98 10.38 11.6 26 33 1017.6 5 23.5 29.7 48.6 127.8 126.2 435.5
22 23:30 11.8 98 10.32 11.5 22 28 1017.6 4.8 23.4 29.6 48.4 127.2 125.5 433.0
22 23:20 11.8 98 10.32 11.5 17 20 1017.7 4.2 23.4 29.6 48.4 127.2 125.5 433.0
22 23:10 11.8 98 10.32 11.5 19 22 1017.7 3.2 23.4 29.6 48.4 127.2 125.5 433.0
22 23:00 11.8 97 10.21 11.3 19 24 1017.8 2.8 23.1 29.4 47.9 126.0 123.9 427.5
22 22:50 11.8 96 10.11 11.2 19 24 1017.9 2.6 22.9 29.3 47.5 124.8 122.5 422.5
22 22:40 11.8 96 10.11 11.2 20 24 1017.9 2.6 22.9 29.3 47.5 124.8 122.5 422.5
22 22:30 11.8 97 10.21 11.3 17 22 1017.9 2.6 23.1 29.4 47.9 126.0 124.0 427.5
22 22:20 11.8 96 10.11 11.2 20 28 1017.9 2.6 22.9 29.3 47.5 124.8 122.5 422.5
22 22:10 11.7 97 10.15 11.2 24 32 1017.9 2.6 23.0 29.4 47.7 125.4 123.3 425.1
22 22:00 11.7 97 10.15 11.2 19 28 1017.9 2.6 23.0 29.4 47.7 125.4 123.3 425.1
22 21:50 11.8 97 10.21 11.3 28 39 1017.8 2.4 23.1 29.4 47.9 126.0 123.9 427.5
22 21:40 11.7 98 10.25 11.4 32 48 1017.8 2.4 23.2 29.5 48.1 126.6 124.7 430.1
22 21:30 11.7 98 10.25 11.4 20 35 1017.7 2.2 23.2 29.5 48.1 126.6 124.7 430.0
22 21:20 11.6 98 10.19 11.3 20 26 1017.7 2.2 23.1 29.5 47.9 126.0 124.0 427.6
22 21:10 11.4 98 10.06 11.1 17 24 1017.7 2 22.8 29.3 47.5 124.8 122.4 422.1
22 21:00 11.4 97 9.96 10.9 19 30 1017.6 1.8 22.6 29.1 47.0 123.7 121.0 417.0
22 20:50 11.3 97 9.9 10.8 15 20 1017.8 1.6 22.5 29.0 46.8 123.1 120.3 414.6
22 20:40 11.3 96 9.79 10.7 17 20 1017.8 1.6 22.3 28.9 46.4 121.9 118.7 409.1
22 20:30 11.3 95 9.69 10.5 15 17 1017.7 1.4 22.1 28.7 45.9 120.7 117.3 404.1
22 20:20 11.3 94 9.59 10.4 15 20 1017.7 1.4 21.8 28.5 45.5 119.5 115.8 399.1
22 20:10 11.4 93 9.55 10.3 15 19 1017.7 1.2 21.7 28.4 45.3 118.9 115.1 396.6
22 20:00 11.3 94 9.59 10.4 19 24 1017.6 1.2 21.8 28.5 45.5 119.5 115.8 399.1
22 19:50 11.4 93 9.55 10.3 20 26 1017.5 1.2 21.7 28.4 45.2 118.9 115.1 396.5
22 19:40 11.5 93 9.61 10.4 20 24 1017.5 1.2 21.9 28.5 45.4 119.4 115.8 399.0
22 19:30 11.4 94 9.65 10.5 20 32 1017.3 1.2 22.0 28.6 45.7 120.0 116.5 401.4
22 19:20 11.4 94 9.65 10.5 20 26 1017.4 1.2 22.0 28.6 45.7 120.0 116.5 401.5
22 19:10 11.4 94 9.65 10.5 20 28 1017.4 1.2 22.0 28.6 45.7 120.0 116.5 401.5
22 19:00 11.4 94 9.65 10.5 17 26 1017.3 1.2 22.0 28.6 45.7 120.0 116.5 401.4
22 18:50 11.4 95 9.75 10.6 22 28 1017.4 1.2 22.2 28.7 46.1 121.2 117.9 406.5
22 18:40 11.5 95 9.81 10.7 17 20 1017.4 1.2 22.3 28.8 46.3 121.7 118.6 408.9
22 18:30 11.5 95 9.81 10.7 17 24 1017.2 1.2 22.3 28.8 46.3 121.7 118.6 408.9
22 18:20 11.5 95 9.81 10.7 15 22 1017.2 1.2 22.3 28.8 46.3 121.7 118.6 408.9
22 18:10 11.5 95 9.81 10.7 15 19 1017.2 1.2 22.3 28.8 46.3 121.7 118.6 408.9
22 18:00 11.5 94 9.71 10.6 15 26 1017 1.2 22.1 28.6 45.9 120.5 117.2 403.8
22 17:50 11.5 94 9.71 10.6 13 17 1017 1.2 22.1 28.6 45.9 120.5 117.2 403.8
22 17:40 11.5 95 9.81 10.7 15 17 1016.9 1.2 22.3 28.8 46.3 121.7 118.6 408.8
22 17:30 11.5 95 9.81 10.7 13 20 1016.8 1.2 22.3 28.8 46.3 121.7 118.6 408.7
22 17:20 11.5 94 9.71 10.6 11 13 1016.8 1.2 22.1 28.6 45.8 120.5 117.2 403.7
22 17:10 11.5 94 9.71 10.6 13 15 1016.8 1.2 22.1 28.6 45.8 120.5 117.2 403.7
22 17:00 11.5 94 9.71 10.6 13 20 1016.6 1.2 22.1 28.6 45.8 120.5 117.1 403.7
22 16:50 11.5 94 9.71 10.6 13 19 1016.6 1.2 22.1 28.6 45.8 120.5 117.1 403.7
22 16:40 11.6 93 9.67 10.5 13 20 1016.6 1.2 22.0 28.5 45.6 119.9 116.4 401.2
22 16:30 11.8 91 9.58 10.4 20 24 1016.5 1.2 21.8 28.3 45.1 118.5 114.8 395.7
22 16:20 11.8 92 9.68 10.5 19 20 1016.4 1.2 22.0 28.4 45.5 119.7 116.2 400.6

Last Refresh: 23-Jul-2024 08:32:45

Bureau of Meteorology